Time;durP1;ratioP1;P1;durP2;ratioP2;P2;SDS_P1;SDS_P2;PMS_P1;PMS_P2;Temp;Humidity;BMP_temperature;BMP_pressure;BME280_temperature;BME280_humidity;BME280_pressure;Samples;Min_cycle;Max_cycle;Signal;HPM_P1;HPM_P2
2023/06/05 00:01:37;;;;;;;5.10;4.23;;;19.00;99.90;;;;;;5117307;28;20193;-77
2023/06/05 00:04:03;;;;;;;4.40;4.00;;;19.00;99.90;;;;;;5117276;28;20185;-84
2023/06/05 00:06:30;;;;;;;4.90;4.50;;;19.00;99.90;;;;;;5117192;28;20455;-77
2023/06/05 00:08:56;;;;;;;4.70;4.07;;;19.00;99.90;;;;;;5099098;28;20437;-83
2023/06/05 00:11:22;;;;;;;4.10;3.70;;;19.00;99.90;;;;;;5099098;28;20448;-77
2023/06/05 00:13:49;;;;;;;6.80;4.10;;;19.00;99.90;;;;;;5117392;28;20431;-77
2023/06/05 00:16:15;;;;;;;6.70;3.80;;;19.00;99.90;;;;;;5116915;28;20224;-84
2023/06/05 00:18:42;;;;;;;5.43;3.93;;;19.00;99.90;;;;;;5132839;27;20995;-78
2023/06/05 00:21:08;;;;;;;4.47;3.90;;;19.10;99.90;;;;;;5095079;28;20500;-83
2023/06/05 00:23:34;;;;;;;6.17;4.30;;;19.10;99.90;;;;;;5096704;28;20435;-78
2023/06/05 00:25:59;;;;;;;7.57;3.77;;;19.10;99.90;;;;;;5096587;28;20205;-78
2023/06/05 00:28:25;;;;;;;5.27;4.20;;;19.20;99.90;;;;;;5096649;28;20174;-77
2023/06/05 00:30:51;;;;;;;4.80;4.10;;;19.20;99.90;;;;;;5096410;28;20204;-78
2023/06/05 00:33:17;;;;;;;4.60;4.13;;;19.20;99.90;;;;;;5096470;28;20414;-85
2023/06/05 00:35:43;;;;;;;4.73;3.70;;;19.20;99.90;;;;;;5096227;28;20246;-77
2023/06/05 00:38:08;;;;;;;4.50;3.80;;;19.20;99.90;;;;;;5094980;28;20211;-85
2023/06/05 00:40:34;;;;;;;7.57;3.77;;;19.20;99.90;;;;;;5096312;28;20285;-84
2023/06/05 00:43:00;;;;;;;5.47;3.77;;;19.20;99.90;;;;;;5094883;28;20641;-78
2023/06/05 00:45:25;;;;;;;4.03;3.63;;;19.20;99.90;;;;;;5093799;28;20204;-85
2023/06/05 00:47:51;;;;;;;3.93;3.53;;;19.20;99.90;;;;;;5095802;28;20628;-84
2023/06/05 00:50:21;;;;;;;5.03;4.00;;;19.20;99.90;;;;;;5094766;28;20302;-85
2023/06/05 00:52:47;;;;;;;4.93;4.10;;;19.20;99.90;;;;;;5095931;28;20480;-85
2023/06/05 00:55:13;;;;;;;5.60;4.07;;;19.20;99.90;;;;;;5095812;28;20500;-78
2023/06/05 00:57:39;;;;;;;7.67;4.60;;;19.20;99.90;;;;;;5095912;28;20399;-81
2023/06/05 01:00:12;;;;;;;4.53;4.13;;;19.20;99.90;;;;;;5095948;28;20436;-85
2023/06/05 01:02:38;;;;;;;4.97;4.33;;;19.20;99.90;;;;;;5095905;28;20266;-84
2023/06/05 01:05:04;;;;;;;5.60;4.10;;;19.20;99.90;;;;;;5094301;28;20974;-78
2023/06/05 01:07:32;;;;;;;4.40;3.90;;;19.20;99.90;;;;;;5094440;28;20447;-78
2023/06/05 01:10:06;;;;;;;6.80;3.70;;;19.10;99.90;;;;;;5094478;28;20245;-78
2023/06/05 01:13:00;;;;;;;5.40;4.37;;;19.10;99.90;;;;;;5094348;28;20418;-77
2023/06/05 01:15:28;;;;;;;5.60;4.33;;;19.10;99.90;;;;;;5094207;28;20484;-85
2023/06/05 01:17:57;;;;;;;5.83;4.30;;;19.10;99.90;;;;;;5095467;28;20433;-85
2023/06/05 01:20:22;;;;;;;4.97;4.30;;;19.00;99.90;;;;;;5104530;28;20469;-77
2023/06/05 01:22:52;;;;;;;4.90;4.27;;;19.00;99.90;;;;;;5115735;28;20434;-85
2023/06/05 01:25:18;;;;;;;9.60;5.67;;;18.90;99.90;;;;;;5097434;28;20213;-85
2023/06/05 01:28:05;;;;;;;6.63;4.80;;;18.90;99.90;;;;;;5115567;28;20400;-85
2023/06/05 01:30:39;;;;;;;7.70;5.13;;;18.80;99.90;;;;;;5097323;28;20441;-85
2023/06/05 01:33:21;;;;;;;10.50;5.73;;;18.80;99.90;;;;;;5097324;28;20773;-77
2023/06/05 01:35:51;;;;;;;7.40;5.00;;;18.70;99.90;;;;;;5097217;28;20479;-78
2023/06/05 01:38:18;;;;;;;6.43;4.80;;;18.70;99.90;;;;;;5131650;27;20474;-85
2023/06/05 01:40:47;;;;;;;5.90;4.90;;;18.70;99.90;;;;;;5115399;28;20490;-80
2023/06/05 01:43:13;;;;;;;8.63;4.73;;;18.70;99.90;;;;;;5115510;28;20808;-85
2023/06/05 01:45:43;;;;;;;5.37;4.83;;;18.60;99.90;;;;;;5115319;28;20512;-81
2023/06/05 01:48:12;;;;;;;5.30;4.80;;;18.60;99.90;;;;;;5115326;28;20518;-85
2023/06/05 01:50:38;;;;;;;5.83;5.23;;;18.60;99.90;;;;;;5115240;28;20504;-85
2023/06/05 01:53:05;;;;;;;8.43;5.50;;;18.50;99.90;;;;;;5115194;28;20550;-85
2023/06/05 01:55:31;;;;;;;8.13;4.83;;;18.50;99.90;;;;;;5130930;27;20223;-84
2023/06/05 01:57:57;;;;;;;6.50;5.23;;;18.40;99.90;;;;;;5114702;28;20453;-85
2023/06/05 02:00:22;;;;;;;5.60;4.20;;;18.40;99.90;;;;;;5130907;27;20291;-85
2023/06/05 02:02:50;;;;;;;7.03;4.87;;;18.30;99.90;;;;;;5114927;28;20175;-77
2023/06/05 02:05:17;;;;;;;5.23;4.73;;;18.30;99.90;;;;;;5115122;28;20530;-85
2023/06/05 02:07:49;;;;;;;5.40;4.90;;;18.30;99.90;;;;;;5114993;28;20404;-85
2023/06/05 02:10:15;;;;;;;5.10;4.60;;;18.30;99.90;;;;;;5130733;27;20428;-77
2023/06/05 02:12:44;;;;;;;5.70;5.00;;;18.30;99.90;;;;;;5096414;28;20416;-77
2023/06/05 02:15:13;;;;;;;5.00;4.50;;;18.30;99.90;;;;;;5114589;28;20467;-78
2023/06/05 02:17:50;;;;;;;5.50;4.60;;;18.20;99.90;;;;;;5130527;27;20989;-85
2023/06/05 02:20:16;;;;;;;5.27;4.87;;;18.20;99.90;;;;;;5114502;28;20468;-77
2023/06/05 02:22:44;;;;;;;6.63;5.50;;;18.20;99.90;;;;;;5096383;28;20844;-77
2023/06/05 02:25:10;;;;;;;6.20;4.73;;;18.20;99.90;;;;;;5096162;28;20765;-85
2023/06/05 02:27:36;;;;;;;5.33;4.83;;;18.10;99.90;;;;;;5114564;28;20487;-84
2023/06/05 02:30:03;;;;;;;5.27;4.67;;;18.10;99.90;;;;;;5114326;28;21049;-77
2023/06/05 02:32:31;;;;;;;6.43;5.30;;;18.10;99.90;;;;;;5114415;28;20460;-84
2023/06/05 02:34:57;;;;;;;5.13;4.63;;;18.10;99.90;;;;;;5114740;28;20502;-78
2023/06/05 02:37:24;;;;;;;5.70;5.20;;;18.10;99.90;;;;;;5114467;28;20405;-77
2023/06/05 02:39:49;;;;;;;6.63;5.40;;;18.10;99.90;;;;;;5114760;28;20526;-78
2023/06/05 02:42:16;;;;;;;4.90;4.50;;;18.00;99.90;;;;;;5130229;27;20448;-77
2023/06/05 02:44:42;;;;;;;6.03;5.43;;;18.00;99.90;;;;;;5096208;28;20172;-85
2023/06/05 02:47:08;;;;;;;6.53;5.93;;;17.90;99.90;;;;;;5114360;28;20937;-85
2023/06/05 02:49:33;;;;;;;5.90;5.30;;;17.90;99.90;;;;;;5096101;28;20748;-85
2023/06/05 02:51:59;;;;;;;8.17;4.60;;;17.80;99.90;;;;;;5114172;28;20183;-78
2023/06/05 02:54:28;;;;;;;5.53;4.90;;;17.80;99.90;;;;;;5114564;28;20171;-85
2023/06/05 02:56:54;;;;;;;6.47;4.80;;;17.80;99.90;;;;;;5114183;28;20253;-85
2023/06/05 02:59:22;;;;;;;6.90;5.20;;;17.70;99.90;;;;;;5114109;28;20457;-77
2023/06/05 03:01:49;;;;;;;6.80;5.03;;;17.70;99.90;;;;;;5129834;28;20448;-85
2023/06/05 03:04:20;;;;;;;7.03;5.60;;;17.70;99.90;;;;;;5114432;28;20435;-85
2023/06/05 03:06:47;;;;;;;9.30;5.73;;;17.70;99.90;;;;;;5114181;28;20940;-85
2023/06/05 03:09:13;;;;;;;8.40;6.20;;;17.70;99.90;;;;;;5115362;28;20767;-85
2023/06/05 03:11:39;;;;;;;10.07;5.93;;;17.60;99.90;;;;;;5118331;28;20512;-76
2023/06/05 03:14:05;;;;;;;7.00;5.87;;;17.60;99.90;;;;;;5100060;28;20176;-76
2023/06/05 03:16:34;;;;;;;6.90;5.40;;;17.50;99.90;;;;;;5099980;28;20219;-84
2023/06/05 03:19:00;;;;;;;9.30;5.63;;;17.60;99.90;;;;;;5118084;28;20435;-85
2023/06/05 03:21:25;;;;;;;6.03;5.40;;;17.60;99.90;;;;;;5118237;28;20459;-85
2023/06/05 03:23:51;;;;;;;6.23;5.30;;;17.70;99.90;;;;;;5099761;28;20179;-77
2023/06/05 03:26:16;;;;;;;6.33;5.30;;;17.80;99.90;;;;;;5118121;28;20231;-84
2023/06/05 03:28:42;;;;;;;11.23;5.30;;;17.80;99.90;;;;;;5118247;28;20171;-84
2023/06/05 03:31:10;;;;;;;5.90;5.30;;;17.90;99.90;;;;;;5117975;28;20270;-84
2023/06/05 03:33:35;;;;;;;6.50;5.27;;;17.90;99.90;;;;;;5118166;28;20498;-79
2023/06/05 03:36:01;;;;;;;7.00;6.10;;;17.90;99.90;;;;;;5117743;28;20520;-76
2023/06/05 03:38:27;;;;;;;7.57;5.70;;;17.90;99.90;;;;;;5099720;28;20179;-76
2023/06/05 03:40:53;;;;;;;6.47;5.30;;;18.00;99.90;;;;;;5099791;28;20431;-76
2023/06/05 03:43:19;;;;;;;5.33;4.83;;;18.00;99.90;;;;;;5118042;28;20183;-76
2023/06/05 03:45:45;;;;;;;6.53;5.07;;;18.10;99.90;;;;;;5133479;27;20196;-76
2023/06/05 03:48:11;;;;;;;6.97;5.37;;;18.10;99.90;;;;;;5133443;27;20481;-84
2023/06/05 03:50:41;;;;;;;7.17;4.97;;;18.10;99.90;;;;;;5117637;28;20224;-76
2023/06/05 03:53:08;;;;;;;9.70;6.80;;;18.10;99.90;;;;;;5118053;28;20416;-84
2023/06/05 03:55:52;;;;;;;8.73;6.80;;;18.00;99.90;;;;;;5098987;28;20475;-85
2023/06/05 03:58:19;;;;;;;9.50;5.60;;;18.00;99.90;;;;;;5117564;28;20764;-76
2023/06/05 04:00:48;;;;;;;7.97;5.60;;;18.00;99.90;;;;;;5117055;28;20416;-76
2023/06/05 04:03:15;;;;;;;7.90;5.40;;;18.00;99.90;;;;;;5117339;28;20428;-85
2023/06/05 04:05:41;;;;;;;5.77;5.20;;;18.10;99.90;;;;;;5117307;28;20464;-76
2023/06/05 04:08:11;;;;;;;8.27;5.77;;;18.10;99.90;;;;;;5117289;28;20415;-76
2023/06/05 04:10:37;;;;;;;7.00;5.30;;;18.10;99.90;;;;;;5133004;27;20431;-84
2023/06/05 04:13:03;;;;;;;8.33;5.57;;;18.20;99.90;;;;;;5098884;28;20408;-84
2023/06/05 04:15:29;;;;;;;6.50;5.17;;;18.20;99.90;;;;;;5132136;27;20841;-83
2023/06/05 04:17:55;;;;;;;6.03;5.40;;;18.20;99.90;;;;;;5116903;28;20187;-76
2023/06/05 04:20:21;;;;;;;6.60;5.70;;;18.30;99.90;;;;;;5097716;28;20235;-83
2023/06/05 04:22:46;;;;;;;10.80;5.87;;;18.30;99.90;;;;;;5115679;28;20172;-85
2023/06/05 04:25:12;;;;;;;8.33;6.30;;;18.40;99.90;;;;;;5115974;28;20421;-86
2023/06/05 04:27:39;;;;;;;7.60;6.10;;;18.40;99.90;;;;;;5115698;28;20184;-82
2023/06/05 04:30:09;;;;;;;5.43;4.87;;;18.30;99.90;;;;;;5115955;28;20442;-85
2023/06/05 04:32:38;;;;;;;5.83;5.07;;;18.40;99.90;;;;;;5115541;28;20458;-77
2023/06/05 04:35:06;;;;;;;7.67;5.60;;;18.50;99.90;;;;;;5096422;28;20554;-78
2023/06/05 04:37:32;;;;;;;6.17;5.60;;;18.50;99.90;;;;;;5096897;28;20424;-84
2023/06/05 04:39:58;;;;;;;6.93;6.23;;;18.50;99.90;;;;;;5097138;28;20488;-85
2023/06/05 04:42:25;;;;;;;6.43;5.40;;;18.50;99.90;;;;;;5115023;28;20450;-85
2023/06/05 04:44:57;;;;;;;6.70;5.73;;;18.40;99.90;;;;;;5115378;28;20455;-85
2023/06/05 04:47:22;;;;;;;6.80;5.23;;;18.40;99.90;;;;;;5114114;28;20408;-77
2023/06/05 04:49:51;;;;;;;7.30;5.80;;;18.40;99.90;;;;;;5096316;28;20969;-84
2023/06/05 04:52:17;;;;;;;5.53;5.03;;;18.50;99.90;;;;;;5114296;28;20176;-77
2023/06/05 04:54:43;;;;;;;11.00;5.77;;;18.50;99.90;;;;;;5094644;28;21005;-82
2023/06/05 04:57:10;;;;;;;7.47;6.10;;;18.60;99.90;;;;;;5103055;28;20511;-79
2023/06/05 04:59:36;;;;;;;6.73;5.77;;;18.70;99.90;;;;;;5132563;28;20172;-77
2023/06/05 05:02:02;;;;;;;100.57;50.77;;;18.70;99.90;;;;;;5099952;28;20424;-77
2023/06/05 05:04:28;;;;;;;15.03;10.87;;;18.70;99.90;;;;;;5117046;27;20671;-77
2023/06/05 05:06:53;;;;;;;10.13;6.40;;;18.80;99.90;;;;;;5128196;27;20525;-77
2023/06/05 05:09:19;;;;;;;7.80;5.57;;;18.80;99.90;;;;;;5113617;28;20196;-87
2023/06/05 05:11:45;;;;;;;6.40;5.20;;;18.80;99.90;;;;;;5095326;28;20670;-86
2023/06/05 05:14:11;;;;;;;7.33;6.17;;;18.90;99.90;;;;;;5111637;28;20434;-86
2023/06/05 05:16:36;;;;;;;8.07;5.67;;;18.80;99.90;;;;;;5094686;28;20220;-77
2023/06/05 05:19:02;;;;;;;8.10;6.80;;;18.90;99.90;;;;;;5098470;28;20169;-84
2023/06/05 05:21:28;;;;;;;7.75;6.03;;;18.90;99.90;;;;;;5079186;27;1107262;-77
2023/06/05 05:23:53;;;;;;;9.10;6.47;;;19.00;99.90;;;;;;5096871;28;20181;-78
2023/06/05 05:26:20;;;;;;;9.30;6.00;;;19.10;99.90;;;;;;5113402;27;20622;-85
2023/06/05 05:28:45;;;;;;;8.57;7.30;;;19.10;99.90;;;;;;5112918;27;20181;-86
2023/06/05 05:31:11;;;;;;;7.27;6.57;;;19.10;99.90;;;;;;5094509;28;20535;-77
2023/06/05 05:33:36;;;;;;;6.57;5.63;;;19.20;99.90;;;;;;5112369;28;20216;-85
2023/06/05 05:36:02;;;;;;;6.17;5.57;;;19.20;99.90;;;;;;5092592;28;20314;-77
2023/06/05 05:38:28;;;;;;;6.80;5.80;;;19.30;99.90;;;;;;5105791;27;20187;-77
2023/06/05 05:40:53;;;;;;;8.77;6.50;;;19.40;99.90;;;;;;5089802;28;20977;-85
2023/06/05 05:43:19;;;;;;;10.03;5.13;;;19.60;99.90;;;;;;5086376;28;20248;-86
2023/06/05 05:45:45;;;;;;;6.77;5.60;;;19.70;99.90;;;;;;5088877;28;20199;-77
2023/06/05 05:48:11;;;;;;;12.40;5.80;;;19.80;99.90;;;;;;5111164;27;20439;-85
2023/06/05 05:50:36;;;;;;;6.70;5.83;;;19.90;99.90;;;;;;5113081;28;20199;-77
2023/06/05 05:53:03;;;;;;;6.07;5.47;;;19.80;99.90;;;;;;5112051;27;20267;-84
2023/06/05 05:55:29;;;;;;;8.97;5.90;;;19.90;99.90;;;;;;5110713;28;20684;-77
2023/06/05 05:57:54;;;;;;;6.53;5.07;;;19.90;99.90;;;;;;5094213;28;20463;-84
2023/06/05 06:00:21;;;;;;;8.17;4.93;;;20.00;99.90;;;;;;5113307;28;20672;-77
2023/06/05 06:02:47;;;;;;;6.20;5.60;;;20.10;99.90;;;;;;5126705;27;20172;-86
2023/06/05 06:05:13;;;;;;;6.70;6.10;;;20.20;99.90;;;;;;5092498;28;20529;-78
2023/06/05 06:07:40;;;;;;;8.33;5.83;;;20.20;99.90;;;;;;5108899;27;20418;-78
2023/06/05 06:10:07;;;;;;;7.53;6.13;;;20.30;99.90;;;;;;5104934;28;20195;-86
2023/06/05 06:12:34;;;;;;;6.13;5.30;;;20.30;99.90;;;;;;5092837;27;20481;-78
2023/06/05 06:15:00;;;;;;;7.13;5.53;;;20.40;99.90;;;;;;5111099;28;20459;-79
2023/06/05 06:17:27;;;;;;;5.10;4.70;;;20.50;99.90;;;;;;5091423;28;20536;-85
2023/06/05 06:19:53;;;;;;;6.00;5.07;;;20.50;99.90;;;;;;5094434;28;20389;-78
2023/06/05 06:22:19;;;;;;;7.57;5.27;;;20.50;99.90;;;;;;5111529;28;20427;-78
2023/06/05 06:24:44;;;;;;;5.90;5.17;;;20.60;99.90;;;;;;5112442;28;20423;-85
2023/06/05 06:27:12;;;;;;;6.57;5.57;;;20.70;99.90;;;;;;5111143;27;20407;-79
2023/06/05 06:29:47;;;;;;;5.37;4.87;;;20.80;99.90;;;;;;5086834;27;20191;-86
2023/06/05 06:32:13;;;;;;;6.63;5.70;;;20.90;99.90;;;;;;5104467;27;20984;-79
2023/06/05 06:34:38;;;;;;;6.17;5.57;;;20.90;99.90;;;;;;5089016;28;20427;-78
2023/06/05 06:37:04;;;;;;;7.00;5.70;;;20.90;99.90;;;;;;5089278;28;20192;-78
2023/06/05 06:39:31;;;;;;;9.53;6.20;;;21.00;99.90;;;;;;5089912;28;20629;-77
2023/06/05 06:41:57;;;;;;;9.60;5.30;;;21.00;99.90;;;;;;5108964;28;20265;-85
2023/06/05 06:44:23;;;;;;;5.80;5.20;;;21.10;99.90;;;;;;5088291;28;20436;-85
2023/06/05 06:46:48;;;;;;;5.63;4.73;;;21.10;99.90;;;;;;5119361;27;20202;-78
2023/06/05 06:49:14;;;;;;;5.77;5.17;;;21.20;99.90;;;;;;5127808;27;20183;-86
2023/06/05 06:51:40;;;;;;;7.23;5.80;;;21.20;99.90;;;;;;5093758;27;20196;-78
2023/06/05 06:54:06;;;;;;;5.40;4.67;;;21.20;99.90;;;;;;5110816;27;20329;-86
2023/06/05 06:56:31;;;;;;;6.60;5.13;;;21.20;99.90;;;;;;5096486;28;20215;-86
2023/06/05 06:58:57;;;;;;;9.33;5.27;;;21.30;99.90;;;;;;5109746;28;20229;-79
2023/06/05 07:01:24;;;;;;;5.83;5.10;;;21.30;99.90;;;;;;5088241;28;20483;-87
2023/06/05 07:03:50;;;;;;;5.83;5.23;;;21.40;99.90;;;;;;5086762;28;20176;-87
2023/06/05 07:06:16;;;;;;;9.77;5.50;;;21.50;99.90;;;;;;5099360;28;20501;-80
2023/06/05 07:08:41;;;;;;;6.30;4.90;;;21.60;99.90;;;;;;5106379;28;20182;-79
2023/06/05 07:11:07;;;;;;;6.03;5.27;;;21.70;99.90;;;;;;5090478;28;20480;-86
2023/06/05 07:13:32;;;;;;;7.70;5.03;;;21.80;99.90;;;;;;5087011;28;20451;-79
2023/06/05 07:15:58;;;;;;;7.60;5.83;;;21.90;99.90;;;;;;5107372;28;20214;-84
2023/06/05 07:18:24;;;;;;;8.00;5.67;;;22.00;99.90;;;;;;5108749;28;20203;-86
2023/06/05 07:20:49;;;;;;;5.50;4.70;;;22.10;99.90;;;;;;5109504;28;20243;-85
2023/06/05 07:23:17;;;;;;;6.50;5.23;;;22.20;99.90;;;;;;5090095;28;20191;-77
2023/06/05 07:25:43;;;;;;;7.27;5.27;;;22.40;99.90;;;;;;5107902;28;20204;-77
2023/06/05 07:28:11;;;;;;;5.50;5.00;;;22.40;99.90;;;;;;5092969;28;20842;-84
2023/06/05 07:30:37;;;;;;;9.83;5.23;;;22.50;99.90;;;;;;5121135;27;20287;-78
2023/06/05 07:33:03;;;;;;;6.90;4.10;;;22.50;99.90;;;;;;5109277;28;20885;-78
2023/06/05 07:35:29;;;;;;;5.83;5.17;;;22.60;99.90;;;;;;5107572;28;20472;-86
2023/06/05 07:37:55;;;;;;;5.93;4.73;;;22.80;99.90;;;;;;5120584;28;20418;-85
2023/06/05 07:40:21;;;;;;;8.10;5.17;;;22.80;99.90;;;;;;5110885;28;20726;-78
2023/06/05 07:42:46;;;;;;;6.30;4.80;;;22.70;99.90;;;;;;5106960;28;20635;-77
2023/06/05 07:45:12;;;;;;;6.43;5.37;;;22.70;99.90;;;;;;5103662;28;20204;-85
2023/06/05 07:47:38;;;;;;;4.80;4.40;;;22.70;99.90;;;;;;5088467;28;20282;-76
2023/06/05 07:50:06;;;;;;;5.37;4.87;;;22.80;99.90;;;;;;5108351;27;20211;-82
2023/06/05 07:52:32;;;;;;;4.63;4.23;;;23.00;99.90;;;;;;5088225;28;20649;-85
2023/06/05 07:54:58;;;;;;;5.23;4.40;;;23.10;99.90;;;;;;5079353;28;20446;-77
2023/06/05 07:57:29;;;;;;;3.90;3.60;;;23.20;99.90;;;;;;5088549;28;20586;-84
2023/06/05 07:59:55;;;;;;;5.33;4.23;;;23.30;99.90;;;;;;5105493;27;20971;-85
2023/06/05 08:02:23;;;;;;;5.60;4.27;;;23.40;99.90;;;;;;5124625;27;20511;-78
2023/06/05 08:04:49;;;;;;;4.93;4.50;;;23.50;99.90;;;;;;5093001;28;20320;-78
2023/06/05 08:07:14;;;;;;;4.30;3.93;;;23.60;99.90;;;;;;5102341;28;20442;-84
2023/06/05 08:09:41;;;;;;;6.20;4.20;;;23.70;99.90;;;;;;5123087;27;20474;-86
2023/06/05 08:12:07;;;;;;;3.80;3.50;;;23.70;99.90;;;;;;5115316;27;20622;-77
2023/06/05 08:14:34;;;;;;;4.07;3.57;;;23.80;99.90;;;;;;5110726;28;20426;-78
2023/06/05 08:17:00;;;;;;;7.83;4.27;;;23.90;99.90;;;;;;5079040;28;20215;-85
2023/06/05 08:19:26;;;;;;;4.20;3.80;;;24.00;99.90;;;;;;5097271;28;20429;-85
2023/06/05 08:21:59;;;;;;;4.63;3.93;;;24.10;99.90;;;;;;5104200;28;20484;-77
2023/06/05 08:24:26;;;;;;;9.57;4.43;;;24.20;99.90;;;;;;5090170;28;21062;-85
2023/06/05 08:26:53;;;;;;;3.80;3.47;;;24.20;99.90;;;;;;5106556;28;20447;-78
2023/06/05 08:29:18;;;;;;;3.67;3.37;;;24.30;99.90;;;;;;5094826;28;20454;-86
2023/06/05 08:31:44;;;;;;;5.13;3.67;;;24.40;99.90;;;;;;5093381;28;20473;-78
2023/06/05 08:34:10;;;;;;;4.17;3.77;;;24.50;99.90;;;;;;5097405;28;20186;-86
2023/06/05 08:36:36;;;;;;;4.07;3.60;;;24.60;99.90;;;;;;5096285;28;20266;-78
2023/06/05 08:39:02;;;;;;;3.93;3.53;;;24.60;99.90;;;;;;5110051;28;20535;-78
2023/06/05 08:41:33;;;;;;;4.00;3.60;;;24.70;99.90;;;;;;5105244;28;20462;-78
2023/06/05 08:43:59;;;;;;;4.43;3.40;;;24.80;99.90;;;;;;5090886;28;20964;-78
2023/06/05 08:46:28;;;;;;;4.33;3.63;;;24.90;99.90;;;;;;5101444;28;20447;-85
2023/06/05 08:48:56;;;;;;;7.20;4.10;;;25.00;99.90;;;;;;5107518;28;20238;-77
2023/06/05 08:51:22;;;;;;;4.53;3.80;;;25.10;99.90;;;;;;5086332;28;20432;-78
2023/06/05 08:54:06;;;;;;;3.80;3.40;;;25.20;99.90;;;;;;5106579;28;20428;-86
2023/06/05 08:56:35;;;;;;;3.60;3.30;;;25.30;99.90;;;;;;5089903;28;20750;-86
2023/06/05 08:59:03;;;;;;;4.27;3.33;;;25.40;99.90;;;;;;5088039;28;20519;-86
2023/06/05 09:01:32;;;;;;;6.13;3.93;;;25.50;99.90;;;;;;5107698;28;20481;-78
2023/06/05 09:03:57;;;;;;;8.00;3.60;;;25.60;99.90;;;;;;5089456;28;20455;-85
2023/06/05 09:06:23;;;;;;;3.63;2.90;;;25.70;99.90;;;;;;5108974;28;20421;-78
2023/06/05 09:08:49;;;;;;;4.13;3.30;;;25.70;99.90;;;;;;5106772;28;20175;-78
2023/06/05 09:11:28;;;;;;;4.57;3.60;;;25.70;99.90;;;;;;5090107;28;20226;-78
2023/06/05 09:13:58;;;;;;;4.53;3.90;;;25.70;99.90;;;;;;5089197;28;20441;-76
2023/06/05 09:16:35;;;;;;;3.77;3.47;;;25.90;99.90;;;;;;5088337;28;20483;-78
2023/06/05 09:19:01;;;;;;;3.53;3.13;;;25.90;99.90;;;;;;5088542;28;21012;-85
2023/06/05 09:21:31;;;;;;;3.73;3.43;;;26.00;99.90;;;;;;5105438;28;20476;-78
2023/06/05 09:24:16;;;;;;;3.60;3.23;;;26.00;99.90;;;;;;5115375;27;20977;-78
2023/06/05 09:26:49;;;;;;;5.80;3.83;;;26.20;99.90;;;;;;5107080;28;20447;-77
2023/06/05 09:29:36;;;;;;;5.27;3.87;;;26.20;99.90;;;;;;5090038;28;20424;-78
2023/06/05 09:32:16;;;;;;;5.47;3.17;;;26.20;99.90;;;;;;5108217;28;20675;-78
2023/06/05 09:34:44;;;;;;;5.40;3.47;;;26.30;99.90;;;;;;5091156;28;20428;-86
2023/06/05 09:37:12;;;;;;;6.33;3.53;;;26.30;99.90;;;;;;5109665;28;20436;-78
2023/06/05 09:39:46;;;;;;;4.17;3.10;;;26.40;99.90;;;;;;5110035;28;20920;-87
2023/06/05 09:42:11;;;;;;;5.50;3.70;;;26.30;99.90;;;;;;5106699;27;20476;-78
2023/06/05 09:44:37;;;;;;;8.03;3.77;;;26.40;99.90;;;;;;5121536;27;20963;-85
2023/06/05 09:47:07;;;;;;;7.40;4.10;;;26.40;99.90;;;;;;5097193;28;20191;-85
2023/06/05 09:49:52;;;;;;;4.70;3.40;;;26.50;99.90;;;;;;5111543;28;20432;-78
2023/06/05 09:52:19;;;;;;;4.50;3.60;;;26.50;99.90;;;;;;5097335;28;20444;-78
2023/06/05 09:54:46;;;;;;;6.37;3.23;;;26.50;99.90;;;;;;5108359;28;20436;-86
2023/06/05 09:57:13;;;;;;;5.20;3.60;;;26.60;99.90;;;;;;5110697;28;20440;-85
2023/06/05 09:59:50;;;;;;;4.00;3.60;;;26.70;99.90;;;;;;5101323;28;20670;-78
2023/06/05 10:02:18;;;;;;;4.20;3.80;;;26.70;99.90;;;;;;5114324;27;20460;-85
2023/06/05 10:05:04;;;;;;;5.47;4.23;;;26.80;99.90;;;;;;5087527;28;20952;-77
2023/06/05 10:07:36;;;;;;;5.17;3.77;;;26.90;99.90;;;;;;5108142;28;20940;-86
2023/06/05 10:10:02;;;;;;;6.77;3.60;;;26.90;99.90;;;;;;5103975;27;20504;-86
2023/06/05 10:12:30;;;;;;;3.93;3.53;;;26.90;99.90;;;;;;5097076;27;20432;-78
2023/06/05 10:14:57;;;;;;;5.50;3.83;;;26.80;99.90;;;;;;5097363;28;20455;-85
2023/06/05 10:17:23;;;;;;;6.77;3.63;;;26.80;99.90;;;;;;5109992;28;20456;-78
2023/06/05 10:19:50;;;;;;;4.97;4.47;;;26.90;99.90;;;;;;5111180;28;21141;-84
2023/06/05 10:22:18;;;;;;;3.57;3.27;;;27.00;99.90;;;;;;5100657;27;20430;-85
2023/06/05 10:24:56;;;;;;;4.53;3.53;;;27.10;99.90;;;;;;5101567;27;20475;-78
2023/06/05 10:27:34;;;;;;;4.80;4.00;;;27.10;99.90;;;;;;5096137;28;20493;-78
2023/06/05 10:30:32;;;;;;;4.60;3.80;;;27.10;99.90;;;;;;5107010;27;20910;-86
2023/06/05 10:33:03;;;;;;;7.13;4.00;;;27.20;99.90;;;;;;5087265;28;20471;-78
2023/06/05 10:35:50;;;;;;;3.87;3.27;;;27.20;99.90;;;;;;5091167;27;21072;-85
2023/06/05 10:38:21;;;;;;;3.83;3.53;;;27.20;99.90;;;;;;5071145;28;20429;-85
2023/06/05 10:40:58;;;;;;;5.30;3.80;;;27.30;99.90;;;;;;5091045;28;20637;-77
2023/06/05 10:43:45;;;;;;;4.30;3.77;;;27.30;99.90;;;;;;5085560;28;20435;-77
2023/06/05 10:46:40;;;;;;;3.93;3.50;;;27.30;99.90;;;;;;5107358;28;20488;-85
2023/06/05 10:49:23;;;;;;;3.77;3.47;;;27.30;99.90;;;;;;5101624;27;20787;-77
2023/06/05 10:51:53;;;;;;;4.50;4.03;;;27.30;99.90;;;;;;5098853;28;20477;-83
2023/06/05 10:54:22;;;;;;;3.97;3.57;;;27.30;99.90;;;;;;5098129;28;20436;-88
2023/06/05 10:57:06;;;;;;;3.70;3.40;;;27.30;99.90;;;;;;5098979;28;20816;-77
2023/06/05 10:59:34;;;;;;;4.57;3.70;;;27.30;99.90;;;;;;5105810;28;20786;-86
2023/06/05 11:02:09;;;;;;;7.00;3.43;;;27.30;99.90;;;;;;5098763;28;20437;-77
2023/06/05 11:04:46;;;;;;;4.00;3.60;;;27.30;99.90;;;;;;5086239;28;20848;-78
2023/06/05 11:07:16;;;;;;;4.47;4.07;;;27.30;99.90;;;;;;5086450;28;20436;-77
2023/06/05 11:10:04;;;;;;;4.07;3.67;;;27.40;99.90;;;;;;5090476;28;20886;-86
2023/06/05 11:12:42;;;;;;;6.10;3.80;;;27.30;99.90;;;;;;5109332;28;20778;-84
2023/06/05 11:15:12;;;;;;;3.83;3.53;;;27.40;99.90;;;;;;5104821;28;20468;-84
2023/06/05 11:17:41;;;;;;;3.90;3.50;;;27.30;99.90;;;;;;5085832;28;20436;-84
2023/06/05 11:20:09;;;;;;;4.83;4.33;;;27.30;99.90;;;;;;5088156;28;20488;-77
2023/06/05 11:22:53;;;;;;;4.10;3.70;;;27.30;99.90;;;;;;5107254;28;20822;-86
2023/06/05 11:25:24;;;;;;;4.20;3.80;;;27.30;99.90;;;;;;5107537;28;20892;-77
2023/06/05 11:28:01;;;;;;;4.10;3.70;;;27.40;99.90;;;;;;5106909;28;20488;-85
2023/06/05 11:30:32;;;;;;;4.07;3.70;;;27.50;99.90;;;;;;5112686;27;20448;-79
2023/06/05 11:33:14;;;;;;;4.20;3.80;;;27.40;99.90;;;;;;5094729;27;20846;-85
2023/06/05 11:35:41;;;;;;;5.17;4.30;;;27.40;99.90;;;;;;5096364;27;20472;-77
2023/06/05 11:38:09;;;;;;;4.90;3.67;;;27.30;99.90;;;;;;5119372;27;20979;-87
2023/06/05 11:40:35;;;;;;;4.47;4.13;;;27.30;99.90;;;;;;5088545;28;20449;-85
2023/06/05 11:43:09;;;;;;;4.43;4.13;;;27.30;99.90;;;;;;5094807;27;20465;-77
2023/06/05 11:45:48;;;;;;;3.90;3.60;;;27.30;99.90;;;;;;5114293;27;20447;-85
2023/06/05 11:48:16;;;;;;;4.77;4.37;;;27.30;99.90;;;;;;5093629;28;20466;-77
2023/06/05 11:51:03;;;;;;;7.80;4.40;;;27.30;99.90;;;;;;5112513;28;20457;-86
2023/06/05 11:53:30;;;;;;;7.70;3.60;;;27.30;99.90;;;;;;5116403;27;20510;-85
2023/06/05 11:56:09;;;;;;;4.57;4.13;;;27.20;99.90;;;;;;5112319;27;20615;-77
2023/06/05 11:58:36;;;;;;;5.90;4.27;;;27.30;99.90;;;;;;5112387;27;20786;-77
2023/06/05 12:01:12;;;;;;;4.50;4.07;;;27.30;99.90;;;;;;5110470;28;20444;-85
2023/06/05 12:03:39;;;;;;;4.20;3.90;;;27.30;99.90;;;;;;5094624;28;20436;-85
2023/06/05 12:06:05;;;;;;;4.63;4.00;;;27.30;99.90;;;;;;5114029;27;20440;-86
2023/06/05 12:08:33;;;;;;;4.90;4.47;;;27.30;99.90;;;;;;5120985;27;20432;-86
2023/06/05 12:11:00;;;;;;;7.13;3.90;;;27.30;99.90;;;;;;5116288;27;20440;-81
2023/06/05 12:13:53;;;;;;;3.63;3.30;;;27.30;99.90;;;;;;5118317;27;20512;-86
2023/06/05 12:16:28;;;;;;;5.40;4.47;;;27.30;99.90;;;;;;5104032;28;20475;-78
2023/06/05 12:18:55;;;;;;;3.77;3.47;;;27.20;99.90;;;;;;5103223;27;20427;-88
2023/06/05 12:21:26;;;;;;;4.67;4.27;;;27.20;99.90;;;;;;5099770;28;20466;-85
2023/06/05 12:24:01;;;;;;;4.60;4.20;;;27.20;99.90;;;;;;5093955;28;20432;-77
2023/06/05 12:26:30;;;;;;;6.93;4.20;;;27.20;99.90;;;;;;5093135;27;20956;-77
2023/06/05 12:29:05;;;;;;;7.63;4.67;;;27.20;99.90;;;;;;5115196;27;20419;-87
2023/06/05 12:31:39;;;;;;;5.70;4.67;;;27.20;99.90;;;;;;5113007;28;20897;-85
2023/06/05 12:34:05;;;;;;;4.37;3.97;;;27.20;99.90;;;;;;5113669;28;20471;-86
2023/06/05 12:36:41;;;;;;;23.50;13.83;;;27.20;99.90;;;;;;5116107;27;20587;-77
2023/06/05 12:39:10;;;;;;;5.33;4.83;;;27.20;99.90;;;;;;5111708;27;20431;-84
2023/06/05 12:41:36;;;;;;;4.90;4.40;;;27.20;99.90;;;;;;5113781;27;20458;-77
2023/06/05 12:44:06;;;;;;;5.20;4.10;;;27.20;99.90;;;;;;5109303;27;20454;-77
2023/06/05 12:46:32;;;;;;;6.80;4.70;;;27.20;99.90;;;;;;5113014;28;20453;-77
2023/06/05 12:48:59;;;;;;;6.30;4.00;;;27.20;99.90;;;;;;5093299;28;20440;-85
2023/06/05 12:51:29;;;;;;;5.20;4.27;;;27.10;99.90;;;;;;5113795;28;20432;-85
2023/06/05 12:53:55;;;;;;;4.20;3.70;;;27.20;99.90;;;;;;5113143;28;21032;-78